Relevés horaires Titlis (Suisse)


Relevés horaires à Titlis - Mardi 16 Janv. 2018
Heure UTC1 Température [°C] Vent [km/h] Hum. [%] Pres.4 [hPa] Visi. [Km] Nébu. [octa] Préc.5 [mm] Cond.
2m. Res. Ros. Dir.2 Vit. Moy. Raf.3
21:00 -9.5 -21.6 -9.5 O 55.6 79.6 125.9 100 700(-0.3/3h) -- -- -- --
20:00 -9.1 -20.5 -9.1 O 50.0 -- 87.0 100 700(-0.5/3h) -- -- -- --
19:00 -9.5 -20.7 -9.5 O 46.3 -- 125.9 100 700(-0.5/3h) -- -- -- --
18:00 -8.7 -21.4 -8.7 O 68.5 -- 161.1 100 700(-1.2/3h) -- -- -- --
17:00 -8.8 -19.6 -8.8 O 44.4 -- 114.8 100 700(-1.2/3h) -- -- -- --
16:00 -9.6 -22.7 -9.6 O 68.5 -- 153.7 100 700 -- -- -- --
15:00 -10.0 -23.4 -10.0 O 70.4 -- 137.0 100 700(-0.3/3h) -- -- -- --
14:00 -9.6 -19.7 -9.6 O 35.2 -- 129.6 100 700(-0.2/3h) -- -- -- --
13:00 -9.3 -20.3 -9.3 O 44.4 -- 135.2 100 700(-0.5/3h) -- -- -- --
12:00 -9.8 -21.3 -9.8 O 48.2 -- 179.6 100 700(-0.2/3h) -- -- -- --
11:00 -8.8 -20 -8.8 O 48.2 -- 179.6 100 700(-0.2/3h) -- -- -- --
10:00 -8.9 -21 -8.9 O 59.3 -- 124.1 100 700(0.3/3h) -- -- -- --
09:00 -9.1 -21.5 -9.1 O 61.1 -- 131.5 100 700(0.1/3h) -- -- -- --
08:00 -9.3 -21.6 -9.3 O 59.3 -- 127.8 100 700(0.3/3h) -- -- -- --
07:00 -9.5 -22 -9.5 O 61.1 -- 131.5 100 700(-0.7/3h) -- -- -- --
06:00 -9.1 -20.9 -9.1 O 53.7 -- 129.6 100 700(-1.0/3h) -- -- -- --
05:00 -9.3 -21 -9.3 O 51.9 -- 129.6 100 700(-1.4/3h) -- -- -- --
04:00 -9.6 -19.9 -9.6 O 37.0 -- 88.9 100 700(-0.9/3h) -- -- -- --
03:00 -8.6 -20 -8.6 O 51.9 -- 98.2 100 700 -- -- -- --
02:00 -8.7 -19.3 -8.7 O 42.6 -- 94.5 100 700(-1.4/3h) -- -- -- --
01:00 -8.9 -19.7 -8.9 O 44.4 -- 98.2 100 700(-1.2/3h) -- -- -- --
00:00 -9.0 -19.7 -9.0 O 42.6 -- 103.7 100 700 -- -- -- --

1 Coordinated Universal Time. Actuellement il est 22:00 locale et 21:00 UTC.

2 Le vent souffle depuis la direction indiquée vers la direction oposée.

3 Les rafales max. sont disponible 40 min après l'heure du relevé.

4 Pour les stations d'altitude (plus de 600m) le géopotentiel du niveau le plus proche de la pression obligatoire est indiqué.

5 Les stations disposant d'un diffuseur peuvent indiquer "trace". Cela signifie que des précipitations ont touchés le sol mais que la quantité est inférieure à 0.1 mm.

Récapitulatif de la journée
Température [°C] Vent [km/h] Ensoleillement4 [h] Precipitations totale5 [mm] Pression [Hpa]
Min1 Max.2 Moy.3 Max. Min Max.
-9.8 -8.3 79.6 179.6 0 h 0 min 0 700.0 700.0

1 Température minimale relevée entre 18:00 UTC la veille et 18:00 UTC le jour donné.

2 Température maximale relevée entre 06:00 UTC le jour donné et 06:00 UTC le lendemain.

3 Vent moyen de la journée basé sur les relevés horaires.

4 Ensoleillement en heures relevé entre 06:00 UTC la veille et 06:00 UTC le jour donné.

5 Précipitations totales tombées entre 06:00 UTC la jour donné et 06:00 UTC le lendemain.

Graphiques horaires